sensor_id;sensor_type;location;lat;lon;timestamp;temperature;humidity
17489;DHT22;8861;52.644;4.734;2023-05-29T00:02:09;11.60;99.90
17489;DHT22;8861;52.644;4.734;2023-05-29T00:04:36;11.60;99.90
17489;DHT22;8861;52.644;4.734;2023-05-29T00:07:04;11.60;99.90
17489;DHT22;8861;52.644;4.734;2023-05-29T00:09:31;11.60;99.90
17489;DHT22;8861;52.644;4.734;2023-05-29T00:11:59;11.50;99.90
17489;DHT22;8861;52.644;4.734;2023-05-29T00:14:26;11.50;99.90
17489;DHT22;8861;52.644;4.734;2023-05-29T00:16:53;11.50;99.90
17489;DHT22;8861;52.644;4.734;2023-05-29T00:19:20;11.40;99.90
17489;DHT22;8861;52.644;4.734;2023-05-29T00:21:47;11.40;99.90
17489;DHT22;8861;52.644;4.734;2023-05-29T00:24:14;11.40;99.90
17489;DHT22;8861;52.644;4.734;2023-05-29T00:26:41;11.40;99.90
17489;DHT22;8861;52.644;4.734;2023-05-29T00:29:09;11.40;99.90
17489;DHT22;8861;52.644;4.734;2023-05-29T00:31:36;11.40;99.90
17489;DHT22;8861;52.644;4.734;2023-05-29T00:34:03;11.30;99.90
17489;DHT22;8861;52.644;4.734;2023-05-29T00:36:30;11.40;99.90
17489;DHT22;8861;52.644;4.734;2023-05-29T00:38:57;11.30;99.90
17489;DHT22;8861;52.644;4.734;2023-05-29T00:41:24;11.30;99.90
17489;DHT22;8861;52.644;4.734;2023-05-29T00:43:51;11.30;99.90
17489;DHT22;8861;52.644;4.734;2023-05-29T00:46:20;11.30;99.90
17489;DHT22;8861;52.644;4.734;2023-05-29T00:48:47;11.30;99.90
17489;DHT22;8861;52.644;4.734;2023-05-29T00:51:15;11.20;99.90
17489;DHT22;8861;52.644;4.734;2023-05-29T00:53:43;11.20;99.90
17489;DHT22;8861;52.644;4.734;2023-05-29T00:56:12;11.20;99.90
17489;DHT22;8861;52.644;4.734;2023-05-29T00:58:40;11.20;99.90
17489;DHT22;8861;52.644;4.734;2023-05-29T01:01:08;11.20;99.90
17489;DHT22;8861;52.644;4.734;2023-05-29T01:03:37;11.20;99.90
17489;DHT22;8861;52.644;4.734;2023-05-29T01:06:04;11.20;99.90
17489;DHT22;8861;52.644;4.734;2023-05-29T01:08:31;11.10;99.90
17489;DHT22;8861;52.644;4.734;2023-05-29T01:11:14;11.10;99.90
17489;DHT22;8861;52.644;4.734;2023-05-29T01:13:47;11.10;99.90
17489;DHT22;8861;52.644;4.734;2023-05-29T01:16:29;11.10;99.90
17489;DHT22;8861;52.644;4.734;2023-05-29T01:19:05;11.10;99.90
17489;DHT22;8861;52.644;4.734;2023-05-29T01:21:56;11.10;99.90
17489;DHT22;8861;52.644;4.734;2023-05-29T01:24:32;11.10;99.90
17489;DHT22;8861;52.644;4.734;2023-05-29T01:27:03;11.10;99.90
17489;DHT22;8861;52.644;4.734;2023-05-29T01:29:34;11.10;99.90
17489;DHT22;8861;52.644;4.734;2023-05-29T01:32:01;11.10;99.90
17489;DHT22;8861;52.644;4.734;2023-05-29T01:34:29;11.10;99.90
17489;DHT22;8861;52.644;4.734;2023-05-29T01:36:56;11.00;99.90
17489;DHT22;8861;52.644;4.734;2023-05-29T01:39:23;11.10;99.90
17489;DHT22;8861;52.644;4.734;2023-05-29T01:41:52;11.10;99.90
17489;DHT22;8861;52.644;4.734;2023-05-29T01:44:21;11.10;99.90
17489;DHT22;8861;52.644;4.734;2023-05-29T01:46:49;11.10;99.90
17489;DHT22;8861;52.644;4.734;2023-05-29T01:49:16;11.10;99.90
17489;DHT22;8861;52.644;4.734;2023-05-29T01:51:44;11.10;99.90
17489;DHT22;8861;52.644;4.734;2023-05-29T01:54:11;11.00;99.90
17489;DHT22;8861;52.644;4.734;2023-05-29T01:56:38;11.00;99.90
17489;DHT22;8861;52.644;4.734;2023-05-29T01:59:06;10.90;99.90
17489;DHT22;8861;52.644;4.734;2023-05-29T02:01:34;10.90;99.90
17489;DHT22;8861;52.644;4.734;2023-05-29T02:04:01;10.90;99.90
17489;DHT22;8861;52.644;4.734;2023-05-29T02:06:31;10.90;99.90
17489;DHT22;8861;52.644;4.734;2023-05-29T02:08:58;10.90;99.90
17489;DHT22;8861;52.644;4.734;2023-05-29T02:11:25;10.90;99.90
17489;DHT22;8861;52.644;4.734;2023-05-29T02:13:52;10.90;99.90
17489;DHT22;8861;52.644;4.734;2023-05-29T02:16:20;10.80;99.90
17489;DHT22;8861;52.644;4.734;2023-05-29T02:18:48;10.80;99.90
17489;DHT22;8861;52.644;4.734;2023-05-29T02:21:15;10.80;99.90
17489;DHT22;8861;52.644;4.734;2023-05-29T02:23:42;10.70;99.90
17489;DHT22;8861;52.644;4.734;2023-05-29T02:26:09;10.70;99.90
17489;DHT22;8861;52.644;4.734;2023-05-29T02:28:36;10.70;99.90
17489;DHT22;8861;52.644;4.734;2023-05-29T02:31:03;10.70;99.90
17489;DHT22;8861;52.644;4.734;2023-05-29T02:33:30;10.60;99.90
17489;DHT22;8861;52.644;4.734;2023-05-29T02:35:58;10.60;99.90
17489;DHT22;8861;52.644;4.734;2023-05-29T02:38:25;10.60;99.90
17489;DHT22;8861;52.644;4.734;2023-05-29T02:40:52;10.50;99.90
17489;DHT22;8861;52.644;4.734;2023-05-29T02:43:22;10.50;99.90
17489;DHT22;8861;52.644;4.734;2023-05-29T02:45:49;10.50;99.90
17489;DHT22;8861;52.644;4.734;2023-05-29T02:48:16;10.50;99.90
17489;DHT22;8861;52.644;4.734;2023-05-29T02:50:42;10.50;99.90
17489;DHT22;8861;52.644;4.734;2023-05-29T02:53:11;10.40;99.90
17489;DHT22;8861;52.644;4.734;2023-05-29T02:55:38;10.40;99.90
17489;DHT22;8861;52.644;4.734;2023-05-29T02:58:05;10.40;99.90
17489;DHT22;8861;52.644;4.734;2023-05-29T03:00:33;10.40;99.90
17489;DHT22;8861;52.644;4.734;2023-05-29T03:03:00;10.30;99.90
17489;DHT22;8861;52.644;4.734;2023-05-29T03:05:27;10.30;99.90
17489;DHT22;8861;52.644;4.734;2023-05-29T03:07:54;10.30;99.90
17489;DHT22;8861;52.644;4.734;2023-05-29T03:10:22;10.30;99.90
17489;DHT22;8861;52.644;4.734;2023-05-29T03:12:49;10.20;99.90
17489;DHT22;8861;52.644;4.734;2023-05-29T03:15:16;10.20;99.90
17489;DHT22;8861;52.644;4.734;2023-05-29T03:17:45;10.20;99.90
17489;DHT22;8861;52.644;4.734;2023-05-29T03:20:12;10.20;99.90
17489;DHT22;8861;52.644;4.734;2023-05-29T03:22:41;10.10;99.90
17489;DHT22;8861;52.644;4.734;2023-05-29T03:25:08;10.10;99.90
17489;DHT22;8861;52.644;4.734;2023-05-29T03:27:37;10.10;99.90
17489;DHT22;8861;52.644;4.734;2023-05-29T03:30:04;10.10;99.90
17489;DHT22;8861;52.644;4.734;2023-05-29T03:32:31;10.10;99.90
17489;DHT22;8861;52.644;4.734;2023-05-29T03:34:58;10.00;99.90
17489;DHT22;8861;52.644;4.734;2023-05-29T03:37:26;10.10;99.90
17489;DHT22;8861;52.644;4.734;2023-05-29T03:39:53;10.00;99.90
17489;DHT22;8861;52.644;4.734;2023-05-29T03:42:20;10.00;99.90
17489;DHT22;8861;52.644;4.734;2023-05-29T03:44:48;10.00;99.90
17489;DHT22;8861;52.644;4.734;2023-05-29T03:47:15;10.00;99.90
17489;DHT22;8861;52.644;4.734;2023-05-29T03:49:42;10.00;99.90
17489;DHT22;8861;52.644;4.734;2023-05-29T03:52:09;10.00;99.90
17489;DHT22;8861;52.644;4.734;2023-05-29T03:54:36;10.00;99.90
17489;DHT22;8861;52.644;4.734;2023-05-29T03:57:03;10.10;99.90
17489;DHT22;8861;52.644;4.734;2023-05-29T03:59:30;10.10;99.90
17489;DHT22;8861;52.644;4.734;2023-05-29T04:01:59;10.10;99.90
17489;DHT22;8861;52.644;4.734;2023-05-29T04:04:25;10.10;99.90
17489;DHT22;8861;52.644;4.734;2023-05-29T04:06:52;10.10;99.90
17489;DHT22;8861;52.644;4.734;2023-05-29T04:09:19;10.10;99.90
17489;DHT22;8861;52.644;4.734;2023-05-29T04:11:46;10.10;99.90
17489;DHT22;8861;52.644;4.734;2023-05-29T04:14:13;10.10;99.90
17489;DHT22;8861;52.644;4.734;2023-05-29T04:16:40;10.10;99.90
17489;DHT22;8861;52.644;4.734;2023-05-29T04:19:08;10.20;99.90
17489;DHT22;8861;52.644;4.734;2023-05-29T04:21:35;10.30;99.90
17489;DHT22;8861;52.644;4.734;2023-05-29T04:24:03;10.30;99.90
17489;DHT22;8861;52.644;4.734;2023-05-29T04:26:30;10.30;99.90
17489;DHT22;8861;52.644;4.734;2023-05-29T04:28:58;10.30;99.90
17489;DHT22;8861;52.644;4.734;2023-05-29T04:31:25;10.40;99.90
17489;DHT22;8861;52.644;4.734;2023-05-29T04:33:52;10.40;99.90
17489;DHT22;8861;52.644;4.734;2023-05-29T04:36:23;10.50;99.90
17489;DHT22;8861;52.644;4.734;2023-05-29T04:38:52;10.60;99.90
17489;DHT22;8861;52.644;4.734;2023-05-29T04:41:19;10.70;99.90
17489;DHT22;8861;52.644;4.734;2023-05-29T04:43:49;10.70;99.90
17489;DHT22;8861;52.644;4.734;2023-05-29T04:46:17;10.80;99.90
17489;DHT22;8861;52.644;4.734;2023-05-29T04:48:44;10.90;99.90
17489;DHT22;8861;52.644;4.734;2023-05-29T04:51:12;11.00;99.90
17489;DHT22;8861;52.644;4.734;2023-05-29T04:53:40;11.00;99.90
17489;DHT22;8861;52.644;4.734;2023-05-29T04:56:07;11.10;99.90
17489;DHT22;8861;52.644;4.734;2023-05-29T04:58:34;11.10;99.90
17489;DHT22;8861;52.644;4.734;2023-05-29T05:01:01;11.20;99.90
17489;DHT22;8861;52.644;4.734;2023-05-29T05:03:29;11.20;99.90
17489;DHT22;8861;52.644;4.734;2023-05-29T05:05:59;11.30;99.90
17489;DHT22;8861;52.644;4.734;2023-05-29T05:08:27;11.30;99.90
17489;DHT22;8861;52.644;4.734;2023-05-29T05:10:57;11.30;99.90
17489;DHT22;8861;52.644;4.734;2023-05-29T05:13:24;11.40;99.90
17489;DHT22;8861;52.644;4.734;2023-05-29T05:15:51;11.40;99.90
17489;DHT22;8861;52.644;4.734;2023-05-29T05:18:19;11.60;99.90
17489;DHT22;8861;52.644;4.734;2023-05-29T05:20:46;11.60;99.90
17489;DHT22;8861;52.644;4.734;2023-05-29T05:23:12;11.70;99.90
17489;DHT22;8861;52.644;4.734;2023-05-29T05:25:40;11.80;99.90
17489;DHT22;8861;52.644;4.734;2023-05-29T05:28:08;11.90;99.90
17489;DHT22;8861;52.644;4.734;2023-05-29T05:30:35;12.00;99.90
17489;DHT22;8861;52.644;4.734;2023-05-29T05:33:02;12.10;99.90
17489;DHT22;8861;52.644;4.734;2023-05-29T05:35:29;12.20;99.90
17489;DHT22;8861;52.644;4.734;2023-05-29T05:37:56;12.40;99.90
17489;DHT22;8861;52.644;4.734;2023-05-29T05:40:24;12.50;99.90
17489;DHT22;8861;52.644;4.734;2023-05-29T05:42:51;12.50;99.90
17489;DHT22;8861;52.644;4.734;2023-05-29T05:45:20;12.60;99.90
17489;DHT22;8861;52.644;4.734;2023-05-29T05:47:47;12.70;99.90
17489;DHT22;8861;52.644;4.734;2023-05-29T05:50:14;12.80;99.90
17489;DHT22;8861;52.644;4.734;2023-05-29T05:52:41;12.90;99.90
17489;DHT22;8861;52.644;4.734;2023-05-29T05:55:08;13.10;99.90
17489;DHT22;8861;52.644;4.734;2023-05-29T05:57:35;13.10;99.90
17489;DHT22;8861;52.644;4.734;2023-05-29T06:00:02;13.10;99.90
17489;DHT22;8861;52.644;4.734;2023-05-29T06:02:33;13.20;99.90
17489;DHT22;8861;52.644;4.734;2023-05-29T06:05:00;13.30;99.90
17489;DHT22;8861;52.644;4.734;2023-05-29T06:07:28;13.40;99.90
17489;DHT22;8861;52.644;4.734;2023-05-29T06:09:55;13.60;99.90
17489;DHT22;8861;52.644;4.734;2023-05-29T06:12:22;13.70;99.90
17489;DHT22;8861;52.644;4.734;2023-05-29T06:14:50;13.70;99.90
17489;DHT22;8861;52.644;4.734;2023-05-29T06:17:17;13.80;99.90
17489;DHT22;8861;52.644;4.734;2023-05-29T06:19:45;13.90;99.90
17489;DHT22;8861;52.644;4.734;2023-05-29T06:22:13;14.00;99.90
17489;DHT22;8861;52.644;4.734;2023-05-29T06:24:40;14.10;99.90
17489;DHT22;8861;52.644;4.734;2023-05-29T06:27:07;14.20;99.90
17489;DHT22;8861;52.644;4.734;2023-05-29T06:29:34;14.30;99.90
17489;DHT22;8861;52.644;4.734;2023-05-29T06:32:01;14.50;99.90
17489;DHT22;8861;52.644;4.734;2023-05-29T06:34:28;14.50;99.90
17489;DHT22;8861;52.644;4.734;2023-05-29T06:36:56;14.60;99.90
17489;DHT22;8861;52.644;4.734;2023-05-29T06:39:23;14.70;99.90
17489;DHT22;8861;52.644;4.734;2023-05-29T06:41:50;14.80;99.90
17489;DHT22;8861;52.644;4.734;2023-05-29T06:44:17;15.00;99.90
17489;DHT22;8861;52.644;4.734;2023-05-29T06:46:44;15.00;99.90
17489;DHT22;8861;52.644;4.734;2023-05-29T06:49:11;15.10;99.90
17489;DHT22;8861;52.644;4.734;2023-05-29T06:51:38;15.10;99.90
17489;DHT22;8861;52.644;4.734;2023-05-29T06:54:06;15.10;99.90
17489;DHT22;8861;52.644;4.734;2023-05-29T06:56:33;15.00;99.90
17489;DHT22;8861;52.644;4.734;2023-05-29T06:59:00;14.90;99.90
17489;DHT22;8861;52.644;4.734;2023-05-29T07:01:28;15.00;99.90
17489;DHT22;8861;52.644;4.734;2023-05-29T07:03:55;15.00;99.90
17489;DHT22;8861;52.644;4.734;2023-05-29T07:06:22;15.10;99.90
17489;DHT22;8861;52.644;4.734;2023-05-29T07:08:49;15.10;99.90
17489;DHT22;8861;52.644;4.734;2023-05-29T07:11:17;15.20;99.90
17489;DHT22;8861;52.644;4.734;2023-05-29T07:13:44;15.30;99.90
17489;DHT22;8861;52.644;4.734;2023-05-29T07:16:11;15.30;99.90
17489;DHT22;8861;52.644;4.734;2023-05-29T07:18:38;15.30;99.90
17489;DHT22;8861;52.644;4.734;2023-05-29T07:21:05;15.40;99.90
17489;DHT22;8861;52.644;4.734;2023-05-29T07:23:32;15.50;99.90
17489;DHT22;8861;52.644;4.734;2023-05-29T07:25:59;15.60;99.90
17489;DHT22;8861;52.644;4.734;2023-05-29T07:28:28;15.70;99.90
17489;DHT22;8861;52.644;4.734;2023-05-29T07:30:54;15.60;99.90
17489;DHT22;8861;52.644;4.734;2023-05-29T07:33:21;15.50;99.90
17489;DHT22;8861;52.644;4.734;2023-05-29T07:35:48;15.40;99.90
17489;DHT22;8861;52.644;4.734;2023-05-29T07:38:15;15.40;99.90
17489;DHT22;8861;52.644;4.734;2023-05-29T07:40:42;15.30;99.90
17489;DHT22;8861;52.644;4.734;2023-05-29T07:43:09;15.10;99.90
17489;DHT22;8861;52.644;4.734;2023-05-29T07:45:38;14.90;99.90
17489;DHT22;8861;52.644;4.734;2023-05-29T07:48:05;14.90;99.90
17489;DHT22;8861;52.644;4.734;2023-05-29T07:50:32;14.90;99.90
17489;DHT22;8861;52.644;4.734;2023-05-29T07:52:59;15.10;99.90
17489;DHT22;8861;52.644;4.734;2023-05-29T07:55:26;15.30;99.90
17489;DHT22;8861;52.644;4.734;2023-05-29T07:57:53;15.50;99.90
17489;DHT22;8861;52.644;4.734;2023-05-29T08:00:20;15.50;99.90
17489;DHT22;8861;52.644;4.734;2023-05-29T08:02:50;15.60;99.90
17489;DHT22;8861;52.644;4.734;2023-05-29T08:05:17;15.60;99.90
17489;DHT22;8861;52.644;4.734;2023-05-29T08:07:45;15.60;99.90
17489;DHT22;8861;52.644;4.734;2023-05-29T08:10:12;15.40;99.90
17489;DHT22;8861;52.644;4.734;2023-05-29T08:12:40;15.20;99.90
17489;DHT22;8861;52.644;4.734;2023-05-29T08:15:07;15.00;99.90
17489;DHT22;8861;52.644;4.734;2023-05-29T08:17:35;14.80;99.90
17489;DHT22;8861;52.644;4.734;2023-05-29T08:20:04;14.70;99.90
17489;DHT22;8861;52.644;4.734;2023-05-29T08:22:32;14.60;99.90
17489;DHT22;8861;52.644;4.734;2023-05-29T08:25:00;14.60;99.90
17489;DHT22;8861;52.644;4.734;2023-05-29T08:27:27;14.50;99.90
17489;DHT22;8861;52.644;4.734;2023-05-29T08:29:54;14.40;99.90
17489;DHT22;8861;52.644;4.734;2023-05-29T08:32:21;14.40;99.90
17489;DHT22;8861;52.644;4.734;2023-05-29T08:34:48;14.50;99.90
17489;DHT22;8861;52.644;4.734;2023-05-29T08:37:16;14.50;99.90
17489;DHT22;8861;52.644;4.734;2023-05-29T08:39:44;14.50;99.90
17489;DHT22;8861;52.644;4.734;2023-05-29T08:42:13;14.60;99.90
17489;DHT22;8861;52.644;4.734;2023-05-29T08:44:46;14.70;99.90
17489;DHT22;8861;52.644;4.734;2023-05-29T08:47:16;14.70;99.90
17489;DHT22;8861;52.644;4.734;2023-05-29T08:49:50;14.70;99.90
17489;DHT22;8861;52.644;4.734;2023-05-29T08:52:22;14.70;99.90
17489;DHT22;8861;52.644;4.734;2023-05-29T08:54:49;14.70;99.90
17489;DHT22;8861;52.644;4.734;2023-05-29T08:57:17;14.70;99.90
17489;DHT22;8861;52.644;4.734;2023-05-29T08:59:46;14.70;99.90
17489;DHT22;8861;52.644;4.734;2023-05-29T09:02:15;14.60;99.90
17489;DHT22;8861;52.644;4.734;2023-05-29T09:04:42;14.60;99.90
17489;DHT22;8861;52.644;4.734;2023-05-29T09:07:10;14.60;99.90
17489;DHT22;8861;52.644;4.734;2023-05-29T09:09:39;14.70;99.90
17489;DHT22;8861;52.644;4.734;2023-05-29T09:12:07;14.70;99.90
17489;DHT22;8861;52.644;4.734;2023-05-29T09:14:36;14.70;99.90
17489;DHT22;8861;52.644;4.734;2023-05-29T09:17:04;14.80;99.90
17489;DHT22;8861;52.644;4.734;2023-05-29T09:19:31;14.70;99.90
17489;DHT22;8861;52.644;4.734;2023-05-29T09:22:03;14.80;99.90
17489;DHT22;8861;52.644;4.734;2023-05-29T09:24:32;14.80;99.90
17489;DHT22;8861;52.644;4.734;2023-05-29T09:27:00;14.80;99.90
17489;DHT22;8861;52.644;4.734;2023-05-29T09:29:31;14.80;99.90
17489;DHT22;8861;52.644;4.734;2023-05-29T09:31:58;14.90;99.90
17489;DHT22;8861;52.644;4.734;2023-05-29T09:34:26;15.00;99.90
17489;DHT22;8861;52.644;4.734;2023-05-29T09:36:53;15.10;99.90
17489;DHT22;8861;52.644;4.734;2023-05-29T09:39:22;15.20;99.90
17489;DHT22;8861;52.644;4.734;2023-05-29T09:41:49;15.20;99.90
17489;DHT22;8861;52.644;4.734;2023-05-29T09:44:17;15.30;99.90
17489;DHT22;8861;52.644;4.734;2023-05-29T09:46:49;15.30;99.90
17489;DHT22;8861;52.644;4.734;2023-05-29T09:49:16;15.40;99.90
17489;DHT22;8861;52.644;4.734;2023-05-29T09:51:46;15.40;99.90
17489;DHT22;8861;52.644;4.734;2023-05-29T09:54:15;15.40;99.90
17489;DHT22;8861;52.644;4.734;2023-05-29T09:56:43;15.40;99.90
17489;DHT22;8861;52.644;4.734;2023-05-29T09:59:12;15.40;99.90
17489;DHT22;8861;52.644;4.734;2023-05-29T10:01:42;15.40;99.90
17489;DHT22;8861;52.644;4.734;2023-05-29T10:04:10;15.40;99.90
17489;DHT22;8861;52.644;4.734;2023-05-29T10:06:41;15.50;99.90
17489;DHT22;8861;52.644;4.734;2023-05-29T10:09:09;15.60;99.90
17489;DHT22;8861;52.644;4.734;2023-05-29T10:11:38;15.80;99.90
17489;DHT22;8861;52.644;4.734;2023-05-29T10:14:06;16.00;99.90
17489;DHT22;8861;52.644;4.734;2023-05-29T10:16:42;16.20;99.90
17489;DHT22;8861;52.644;4.734;2023-05-29T10:19:12;16.30;99.90
17489;DHT22;8861;52.644;4.734;2023-05-29T10:21:40;16.40;99.90
17489;DHT22;8861;52.644;4.734;2023-05-29T10:24:08;16.40;99.90
17489;DHT22;8861;52.644;4.734;2023-05-29T10:26:39;16.50;99.90
17489;DHT22;8861;52.644;4.734;2023-05-29T10:29:11;16.70;99.90
17489;DHT22;8861;52.644;4.734;2023-05-29T10:31:46;16.80;99.90
17489;DHT22;8861;52.644;4.734;2023-05-29T10:34:23;17.00;99.90
17489;DHT22;8861;52.644;4.734;2023-05-29T10:36:59;17.10;99.90
17489;DHT22;8861;52.644;4.734;2023-05-29T10:39:28;17.20;99.90
17489;DHT22;8861;52.644;4.734;2023-05-29T10:41:55;17.30;99.90
17489;DHT22;8861;52.644;4.734;2023-05-29T10:44:41;17.40;99.90
17489;DHT22;8861;52.644;4.734;2023-05-29T10:47:09;17.70;99.90
17489;DHT22;8861;52.644;4.734;2023-05-29T10:49:38;17.90;99.90
17489;DHT22;8861;52.644;4.734;2023-05-29T10:52:05;18.10;99.90
17489;DHT22;8861;52.644;4.734;2023-05-29T10:54:50;18.30;99.90
17489;DHT22;8861;52.644;4.734;2023-05-29T10:57:21;18.50;99.90
17489;DHT22;8861;52.644;4.734;2023-05-29T10:59:58;18.60;99.90
17489;DHT22;8861;52.644;4.734;2023-05-29T11:02:26;18.60;99.90
17489;DHT22;8861;52.644;4.734;2023-05-29T11:05:17;18.50;99.90
17489;DHT22;8861;52.644;4.734;2023-05-29T11:07:58;18.40;99.90
17489;DHT22;8861;52.644;4.734;2023-05-29T11:10:44;18.40;99.90
17489;DHT22;8861;52.644;4.734;2023-05-29T11:13:23;18.30;99.90
17489;DHT22;8861;52.644;4.734;2023-05-29T11:16:04;18.40;99.90
17489;DHT22;8861;52.644;4.734;2023-05-29T11:18:38;18.50;99.90
17489;DHT22;8861;52.644;4.734;2023-05-29T11:21:22;18.60;99.90
17489;DHT22;8861;52.644;4.734;2023-05-29T11:23:51;18.60;99.90
17489;DHT22;8861;52.644;4.734;2023-05-29T11:26:19;18.70;99.90
17489;DHT22;8861;52.644;4.734;2023-05-29T11:28:47;18.60;99.90
17489;DHT22;8861;52.644;4.734;2023-05-29T11:31:15;18.60;99.90
17489;DHT22;8861;52.644;4.734;2023-05-29T11:33:47;18.50;99.90
17489;DHT22;8861;52.644;4.734;2023-05-29T11:36:15;18.40;99.90
17489;DHT22;8861;52.644;4.734;2023-05-29T11:38:42;18.40;99.90
17489;DHT22;8861;52.644;4.734;2023-05-29T11:41:09;18.40;99.90
17489;DHT22;8861;52.644;4.734;2023-05-29T11:43:36;18.30;99.90
17489;DHT22;8861;52.644;4.734;2023-05-29T11:46:17;18.10;99.90
17489;DHT22;8861;52.644;4.734;2023-05-29T11:48:47;18.00;99.90
17489;DHT22;8861;52.644;4.734;2023-05-29T11:51:14;17.90;99.90
17489;DHT22;8861;52.644;4.734;2023-05-29T11:53:41;17.90;99.90
17489;DHT22;8861;52.644;4.734;2023-05-29T11:56:09;18.00;99.90
17489;DHT22;8861;52.644;4.734;2023-05-29T11:58:37;18.20;99.90
17489;DHT22;8861;52.644;4.734;2023-05-29T12:01:04;18.40;99.90
17489;DHT22;8861;52.644;4.734;2023-05-29T12:03:37;18.50;99.90
17489;DHT22;8861;52.644;4.734;2023-05-29T12:06:06;18.70;99.90
17489;DHT22;8861;52.644;4.734;2023-05-29T12:08:33;19.30;99.90
17489;DHT22;8861;52.644;4.734;2023-05-29T12:11:00;20.00;99.90
17489;DHT22;8861;52.644;4.734;2023-05-29T12:13:27;20.80;99.90
17489;DHT22;8861;52.644;4.734;2023-05-29T12:15:56;21.60;99.90
17489;DHT22;8861;52.644;4.734;2023-05-29T12:18:24;22.30;99.90
17489;DHT22;8861;52.644;4.734;2023-05-29T12:20:56;22.90;99.90
17489;DHT22;8861;52.644;4.734;2023-05-29T12:23:25;23.30;99.90
17489;DHT22;8861;52.644;4.734;2023-05-29T12:25:52;23.70;99.90
17489;DHT22;8861;52.644;4.734;2023-05-29T12:28:20;23.70;99.90
17489;DHT22;8861;52.644;4.734;2023-05-29T12:30:48;23.60;99.90
17489;DHT22;8861;52.644;4.734;2023-05-29T12:33:31;23.30;99.90
17489;DHT22;8861;52.644;4.734;2023-05-29T12:36:06;23.00;99.90
17489;DHT22;8861;52.644;4.734;2023-05-29T12:38:46;22.60;99.90
17489;DHT22;8861;52.644;4.734;2023-05-29T12:41:24;22.30;99.90
17489;DHT22;8861;52.644;4.734;2023-05-29T12:43:53;22.20;99.90
17489;DHT22;8861;52.644;4.734;2023-05-29T12:46:20;22.10;99.90
17489;DHT22;8861;52.644;4.734;2023-05-29T12:48:48;21.90;99.90
17489;DHT22;8861;52.644;4.734;2023-05-29T12:51:15;21.60;99.90
17489;DHT22;8861;52.644;4.734;2023-05-29T12:53:45;21.30;99.90
17489;DHT22;8861;52.644;4.734;2023-05-29T12:56:12;21.00;99.90
17489;DHT22;8861;52.644;4.734;2023-05-29T12:58:39;20.80;99.90
17489;DHT22;8861;52.644;4.734;2023-05-29T13:01:12;20.50;99.90
17489;DHT22;8861;52.644;4.734;2023-05-29T13:03:40;20.30;99.90
17489;DHT22;8861;52.644;4.734;2023-05-29T13:06:07;20.00;99.90
17489;DHT22;8861;52.644;4.734;2023-05-29T13:08:34;19.90;99.90
17489;DHT22;8861;52.644;4.734;2023-05-29T13:11:03;19.90;99.90
17489;DHT22;8861;52.644;4.734;2023-05-29T13:13:30;19.90;99.90
17489;DHT22;8861;52.644;4.734;2023-05-29T13:15:57;19.80;99.90
17489;DHT22;8861;52.644;4.734;2023-05-29T13:18:23;19.70;99.90
17489;DHT22;8861;52.644;4.734;2023-05-29T13:20:51;19.60;99.90
17489;DHT22;8861;52.644;4.734;2023-05-29T13:23:17;19.60;99.90
17489;DHT22;8861;52.644;4.734;2023-05-29T13:25:45;19.50;99.90
17489;DHT22;8861;52.644;4.734;2023-05-29T13:28:15;19.50;99.90
17489;DHT22;8861;52.644;4.734;2023-05-29T13:30:42;19.50;99.90
17489;DHT22;8861;52.644;4.734;2023-05-29T13:33:09;19.60;99.90
17489;DHT22;8861;52.644;4.734;2023-05-29T13:35:36;19.70;99.90
17489;DHT22;8861;52.644;4.734;2023-05-29T13:38:03;19.70;99.90
17489;DHT22;8861;52.644;4.734;2023-05-29T13:40:30;19.60;99.90
17489;DHT22;8861;52.644;4.734;2023-05-29T13:42:57;19.40;99.90
17489;DHT22;8861;52.644;4.734;2023-05-29T13:45:26;19.40;99.90
17489;DHT22;8861;52.644;4.734;2023-05-29T13:47:53;19.20;99.90
17489;DHT22;8861;52.644;4.734;2023-05-29T13:50:21;19.20;99.90
17489;DHT22;8861;52.644;4.734;2023-05-29T13:52:49;19.40;99.90
17489;DHT22;8861;52.644;4.734;2023-05-29T13:55:16;19.60;99.90
17489;DHT22;8861;52.644;4.734;2023-05-29T13:57:43;19.90;99.90
17489;DHT22;8861;52.644;4.734;2023-05-29T14:00:11;20.00;99.90
17489;DHT22;8861;52.644;4.734;2023-05-29T14:02:40;20.10;99.90
17489;DHT22;8861;52.644;4.734;2023-05-29T14:05:07;20.30;99.90
17489;DHT22;8861;52.644;4.734;2023-05-29T14:07:36;20.90;99.90
17489;DHT22;8861;52.644;4.734;2023-05-29T14:10:04;21.70;99.90
17489;DHT22;8861;52.644;4.734;2023-05-29T14:12:31;22.40;99.90
17489;DHT22;8861;52.644;4.734;2023-05-29T14:14:58;22.70;99.90
17489;DHT22;8861;52.644;4.734;2023-05-29T14:17:25;22.70;99.90
17489;DHT22;8861;52.644;4.734;2023-05-29T14:19:54;22.60;99.90
17489;DHT22;8861;52.644;4.734;2023-05-29T14:22:21;22.70;99.90
17489;DHT22;8861;52.644;4.734;2023-05-29T14:24:48;22.80;99.90
17489;DHT22;8861;52.644;4.734;2023-05-29T14:27:15;23.30;99.90
17489;DHT22;8861;52.644;4.734;2023-05-29T14:29:42;24.40;99.90
17489;DHT22;8861;52.644;4.734;2023-05-29T14:32:11;25.80;99.90
17489;DHT22;8861;52.644;4.734;2023-05-29T14:34:38;27.30;99.90
17489;DHT22;8861;52.644;4.734;2023-05-29T14:37:07;28.20;99.90
17489;DHT22;8861;52.644;4.734;2023-05-29T14:39:34;28.80;99.90
17489;DHT22;8861;52.644;4.734;2023-05-29T14:42:01;29.50;98.90
17489;DHT22;8861;52.644;4.734;2023-05-29T14:44:28;29.80;96.30
17489;DHT22;8861;52.644;4.734;2023-05-29T14:46:55;30.00;95.00
17489;DHT22;8861;52.644;4.734;2023-05-29T14:49:21;30.10;93.50
17489;DHT22;8861;52.644;4.734;2023-05-29T14:51:49;30.40;92.90
17489;DHT22;8861;52.644;4.734;2023-05-29T14:54:17;30.80;92.00
17489;DHT22;8861;52.644;4.734;2023-05-29T14:56:44;30.90;90.70
17489;DHT22;8861;52.644;4.734;2023-05-29T14:59:11;30.90;90.30
17489;DHT22;8861;52.644;4.734;2023-05-29T15:01:38;31.30;90.20
17489;DHT22;8861;52.644;4.734;2023-05-29T15:04:05;31.40;85.60
17489;DHT22;8861;52.644;4.734;2023-05-29T15:06:32;30.90;82.80
17489;DHT22;8861;52.644;4.734;2023-05-29T15:08:59;30.30;83.70
17489;DHT22;8861;52.644;4.734;2023-05-29T15:11:29;30.10;83.60
17489;DHT22;8861;52.644;4.734;2023-05-29T15:13:56;29.70;83.10
17489;DHT22;8861;52.644;4.734;2023-05-29T15:16:23;29.50;83.90
17489;DHT22;8861;52.644;4.734;2023-05-29T15:18:50;29.20;84.60
17489;DHT22;8861;52.644;4.734;2023-05-29T15:21:17;28.90;85.00
17489;DHT22;8861;52.644;4.734;2023-05-29T15:23:44;28.50;85.30
17489;DHT22;8861;52.644;4.734;2023-05-29T15:26:11;28.20;85.90
17489;DHT22;8861;52.644;4.734;2023-05-29T15:28:39;28.00;86.70
17489;DHT22;8861;52.644;4.734;2023-05-29T15:31:06;27.80;85.10
17489;DHT22;8861;52.644;4.734;2023-05-29T15:33:33;27.10;85.30
17489;DHT22;8861;52.644;4.734;2023-05-29T15:36:00;26.40;87.10
17489;DHT22;8861;52.644;4.734;2023-05-29T15:38:27;25.90;90.10
17489;DHT22;8861;52.644;4.734;2023-05-29T15:40:55;25.30;91.50
17489;DHT22;8861;52.644;4.734;2023-05-29T15:43:22;24.50;92.20
17489;DHT22;8861;52.644;4.734;2023-05-29T15:45:52;23.90;93.70
17489;DHT22;8861;52.644;4.734;2023-05-29T15:48:19;23.40;95.10
17489;DHT22;8861;52.644;4.734;2023-05-29T15:50:46;22.80;96.10
17489;DHT22;8861;52.644;4.734;2023-05-29T15:53:12;22.30;96.90